createdAt,value
2022-11-20T00:00:04.131Z,4.47
2022-11-20T00:02:30.447Z,5.43
2022-11-20T00:04:56.716Z,5.10
2022-11-20T00:07:22.994Z,4.73
2022-11-20T00:09:49.294Z,6.10
2022-11-20T00:12:15.607Z,5.00
2022-11-20T00:14:42.208Z,5.93
2022-11-20T00:17:08.465Z,5.57
2022-11-20T00:19:34.713Z,5.40
2022-11-20T00:22:00.993Z,4.67
2022-11-20T00:24:27.243Z,6.30
2022-11-20T00:26:53.539Z,5.07
2022-11-20T00:29:20.164Z,6.83
2022-11-20T00:31:46.570Z,7.23
2022-11-20T00:34:12.898Z,3.83
2022-11-20T00:36:39.183Z,4.57
2022-11-20T00:39:05.451Z,6.13
2022-11-20T00:41:31.729Z,4.93
2022-11-20T00:43:58.115Z,4.47
2022-11-20T00:46:25.670Z,5.90
2022-11-20T00:48:52.166Z,5.67
2022-11-20T00:51:19.590Z,5.63
2022-11-20T00:53:46.294Z,6.37
2022-11-20T00:56:13.994Z,6.30
2022-11-20T00:58:41.110Z,5.17
2022-11-20T01:01:11.396Z,5.00
2022-11-20T01:03:39.217Z,6.10
2022-11-20T01:06:07.021Z,5.07
2022-11-20T01:08:34.968Z,5.73
2022-11-20T01:11:08.939Z,4.80
2022-11-20T01:13:37.951Z,4.53
2022-11-20T01:16:05.597Z,5.87
2022-11-20T01:18:32.112Z,5.63
2022-11-20T01:21:05.776Z,5.17
2022-11-20T01:23:33.199Z,4.40
2022-11-20T01:26:00.523Z,6.70
2022-11-20T01:28:26.770Z,5.07
2022-11-20T01:30:53.029Z,3.97
2022-11-20T01:33:19.309Z,5.53
2022-11-20T01:35:45.567Z,5.23
2022-11-20T01:38:11.846Z,5.77
2022-11-20T01:40:38.146Z,4.00
2022-11-20T01:43:23.638Z,5.63
2022-11-20T01:48:16.233Z,4.53
2022-11-20T01:50:42.895Z,4.80
2022-11-20T01:53:11.992Z,6.17
2022-11-20T01:55:41.918Z,5.80
2022-11-20T01:58:08.357Z,6.17
2022-11-20T02:00:34.690Z,7.47
2022-11-20T02:03:13.207Z,5.87
2022-11-20T02:05:42.758Z,6.57
2022-11-20T02:08:09.025Z,7.07
2022-11-20T02:10:35.423Z,6.43
2022-11-20T02:13:20.712Z,5.90
2022-11-20T02:15:47.626Z,6.93
2022-11-20T02:18:15.615Z,5.90
2022-11-20T02:20:43.929Z,6.83
2022-11-20T02:23:13.465Z,8.07
2022-11-20T02:25:40.282Z,5.27
2022-11-20T02:28:06.875Z,5.90
2022-11-20T02:30:33.176Z,6.70
2022-11-20T02:32:59.445Z,7.23
2022-11-20T02:35:25.672Z,5.63
2022-11-20T02:37:53.802Z,6.07
2022-11-20T02:40:20.081Z,6.70
2022-11-20T02:42:46.548Z,7.30
2022-11-20T02:45:12.843Z,6.43
2022-11-20T02:47:39.127Z,6.57
2022-11-20T02:50:07.354Z,5.87
2022-11-20T02:52:33.663Z,5.83
2022-11-20T02:54:59.930Z,6.03
2022-11-20T02:57:26.216Z,6.03
2022-11-20T02:59:52.611Z,5.23
2022-11-20T03:02:18.879Z,5.33
2022-11-20T03:04:45.158Z,6.30
2022-11-20T03:07:11.457Z,5.27
2022-11-20T03:09:37.822Z,6.90
2022-11-20T03:12:04.307Z,7.03
2022-11-20T03:14:30.562Z,6.63
2022-11-20T03:16:56.935Z,5.13
2022-11-20T03:19:23.770Z,7.90
2022-11-20T03:21:50.137Z,6.47
2022-11-20T03:24:16.517Z,5.63
2022-11-20T03:26:42.879Z,7.13
2022-11-20T03:29:09.348Z,5.80
2022-11-20T03:31:41.369Z,7.37
2022-11-20T03:34:08.662Z,5.60
2022-11-20T03:36:35.286Z,6.03
2022-11-20T03:39:01.797Z,6.50
2022-11-20T03:41:29.361Z,6.10
2022-11-20T03:43:56.486Z,5.63
2022-11-20T03:46:23.217Z,7.30
2022-11-20T03:48:51.849Z,6.93
2022-11-20T03:51:22.799Z,6.83
2022-11-20T03:53:50.030Z,7.00
2022-11-20T03:56:17.467Z,6.17
2022-11-20T03:58:44.223Z,6.57
2022-11-20T04:01:12.492Z,5.60
2022-11-20T04:03:39.360Z,5.57
2022-11-20T04:06:09.970Z,5.97
2022-11-20T04:08:36.494Z,5.93
2022-11-20T04:11:28.792Z,4.43
2022-11-20T04:13:56.262Z,5.30
2022-11-20T04:16:23.359Z,6.53
2022-11-20T04:18:56.233Z,6.50
2022-11-20T04:21:22.532Z,5.17
2022-11-20T04:23:49.248Z,5.50
2022-11-20T04:26:15.649Z,5.77
2022-11-20T04:28:42.013Z,5.93
2022-11-20T04:31:12.674Z,5.60
2022-11-20T04:33:39.356Z,6.27
2022-11-20T04:36:07.521Z,6.93
2022-11-20T04:38:33.849Z,7.07
2022-11-20T04:41:01.017Z,7.77
2022-11-20T04:43:27.367Z,6.33
2022-11-20T04:45:54.509Z,6.57
2022-11-20T04:48:20.814Z,6.07
2022-11-20T04:50:47.066Z,5.53
2022-11-20T04:53:13.371Z,6.20
2022-11-20T04:55:39.771Z,6.07
2022-11-20T04:58:06.026Z,6.80
2022-11-20T05:00:32.450Z,5.83
2022-11-20T05:02:58.798Z,5.17
2022-11-20T05:05:25.087Z,6.87
2022-11-20T05:07:51.337Z,5.37
2022-11-20T05:10:17.668Z,4.73
2022-11-20T05:12:43.910Z,5.77
2022-11-20T05:15:10.412Z,4.60
2022-11-20T05:17:36.674Z,6.23
2022-11-20T05:20:02.938Z,5.80
2022-11-20T05:22:29.182Z,5.90
2022-11-20T05:24:55.439Z,6.40
2022-11-20T05:27:21.691Z,5.13
2022-11-20T05:29:47.954Z,6.57
2022-11-20T05:32:14.272Z,7.13
2022-11-20T05:34:40.519Z,6.90
2022-11-20T05:37:06.832Z,6.17
2022-11-20T05:39:33.136Z,5.07
2022-11-20T05:42:18.073Z,5.37
2022-11-20T05:44:44.326Z,6.53
2022-11-20T05:47:10.599Z,6.37
2022-11-20T05:49:36.864Z,6.10
2022-11-20T05:52:03.258Z,5.60
2022-11-20T05:54:29.522Z,5.67
2022-11-20T05:56:55.791Z,6.10
2022-11-20T05:59:22.314Z,4.80
2022-11-20T06:01:48.858Z,5.73
2022-11-20T06:04:15.154Z,5.07
2022-11-20T06:06:41.689Z,6.33
2022-11-20T06:09:07.987Z,6.63
2022-11-20T06:11:34.233Z,6.23
2022-11-20T06:14:00.506Z,5.60
2022-11-20T06:16:27.037Z,6.70
2022-11-20T06:18:53.302Z,5.97
2022-11-20T06:21:20.740Z,6.30
2022-11-20T06:23:47.431Z,6.07
2022-11-20T06:26:18.704Z,5.57
2022-11-20T06:28:45.453Z,5.17
2022-11-20T06:31:12.516Z,5.63
2022-11-20T06:33:38.786Z,5.13
2022-11-20T06:36:10.435Z,6.80
2022-11-20T06:38:37.436Z,5.80
2022-11-20T06:41:04.438Z,6.30
2022-11-20T06:43:30.914Z,6.00
2022-11-20T06:45:58.076Z,7.20
2022-11-20T06:48:24.895Z,6.83
2022-11-20T06:50:51.163Z,6.53
2022-11-20T06:53:17.452Z,5.93
2022-11-20T06:55:44.768Z,5.03
2022-11-20T06:58:11.262Z,6.23
2022-11-20T07:00:37.564Z,6.47
2022-11-20T07:03:04.654Z,7.53
2022-11-20T07:05:30.930Z,6.27
2022-11-20T07:07:57.674Z,7.07
2022-11-20T07:10:24.195Z,5.73
2022-11-20T07:12:51.650Z,5.20
2022-11-20T07:15:18.429Z,5.57
2022-11-20T07:17:44.715Z,5.93
2022-11-20T07:20:11.225Z,6.83
2022-11-20T07:22:37.501Z,6.50
2022-11-20T07:25:04.200Z,5.37
2022-11-20T07:27:30.568Z,6.57
2022-11-20T07:29:56.914Z,5.73
2022-11-20T07:32:23.379Z,6.90
2022-11-20T07:34:49.933Z,6.63
2022-11-20T07:37:16.664Z,6.93
2022-11-20T07:39:43.192Z,5.50
2022-11-20T07:42:09.885Z,6.53
2022-11-20T07:44:36.169Z,7.23
2022-11-20T07:47:02.719Z,6.83
2022-11-20T07:49:28.988Z,6.63
2022-11-20T07:51:56.107Z,7.07
2022-11-20T07:54:24.622Z,8.03
2022-11-20T07:56:50.874Z,6.80
2022-11-20T07:59:17.202Z,7.83
2022-11-20T08:01:43.894Z,8.10
2022-11-20T08:04:10.339Z,6.03
2022-11-20T08:06:37.054Z,7.93
2022-11-20T08:09:03.553Z,7.57
2022-11-20T08:11:48.626Z,8.60
2022-11-20T08:14:14.968Z,8.23
2022-11-20T08:16:42.280Z,8.47
2022-11-20T08:19:08.595Z,7.70
2022-11-20T08:21:38.212Z,8.63
2022-11-20T08:24:05.098Z,7.27
2022-11-20T08:26:31.370Z,7.80
2022-11-20T08:28:58.010Z,7.93
2022-11-20T08:31:25.164Z,9.67
2022-11-20T08:33:51.885Z,9.27
2022-11-20T08:36:18.625Z,8.27
2022-11-20T08:38:55.345Z,9.23
2022-11-20T08:41:25.082Z,9.47
2022-11-20T08:43:51.726Z,8.00
2022-11-20T08:46:18.098Z,8.70
2022-11-20T08:48:44.627Z,9.90
2022-11-20T08:51:11.879Z,9.00
2022-11-20T08:53:38.414Z,8.60
2022-11-20T08:56:05.130Z,8.83
2022-11-20T08:58:43.643Z,9.10
2022-11-20T09:01:17.784Z,8.13
2022-11-20T09:03:44.073Z,8.33
2022-11-20T09:06:10.433Z,9.00
2022-11-20T09:08:37.392Z,8.90
2022-11-20T09:11:04.041Z,9.17
2022-11-20T09:13:30.533Z,9.67
2022-11-20T09:15:57.591Z,11.03
2022-11-20T09:18:24.194Z,10.20
2022-11-20T09:20:50.603Z,9.60
2022-11-20T09:23:17.429Z,10.37
2022-11-20T09:25:43.868Z,11.23
2022-11-20T09:28:10.370Z,9.30
2022-11-20T09:30:36.636Z,11.93
2022-11-20T09:33:04.701Z,10.77
2022-11-20T09:35:30.939Z,11.50
2022-11-20T09:37:57.289Z,10.83
2022-11-20T09:40:24.905Z,10.63
2022-11-20T09:42:51.146Z,12.03
2022-11-20T09:45:36.106Z,11.90
2022-11-20T09:48:12.651Z,12.55
2022-11-20T09:51:01.418Z,9.87
2022-11-20T09:53:46.107Z,10.60
2022-11-20T09:56:12.596Z,10.55
2022-11-20T09:59:04.902Z,10.10
2022-11-20T10:01:33.271Z,11.50
2022-11-20T10:04:04.352Z,9.20
2022-11-20T10:06:30.595Z,9.53
2022-11-20T10:08:59.694Z,10.33
2022-11-20T10:11:34.122Z,10.80
2022-11-20T10:14:12.563Z,11.77
2022-11-20T10:16:59.068Z,11.20
2022-11-20T10:19:44.197Z,11.33
2022-11-20T10:22:10.446Z,12.32
2022-11-20T10:24:44.967Z,11.73
2022-11-20T10:27:17.178Z,10.95
2022-11-20T10:29:44.705Z,11.03
2022-11-20T10:32:15.376Z,10.43
2022-11-20T10:34:49.810Z,12.80
2022-11-20T10:37:29.938Z,12.50
2022-11-20T10:39:59.242Z,11.07
2022-11-20T10:42:35.244Z,15.40
2022-11-20T10:45:17.474Z,11.33
2022-11-20T10:47:44.146Z,12.27
2022-11-20T10:50:12.070Z,14.60
2022-11-20T10:52:44.662Z,11.20
2022-11-20T10:55:22.992Z,12.20
2022-11-20T10:57:54.864Z,13.13
2022-11-20T11:00:22.067Z,12.27
2022-11-20T11:02:49.825Z,13.60
2022-11-20T11:05:36.332Z,12.47
2022-11-20T11:08:03.760Z,13.00
2022-11-20T11:10:37.418Z,13.30
2022-11-20T11:13:04.049Z,14.00
2022-11-20T11:15:37.365Z,15.13
2022-11-20T11:18:04.100Z,13.50
2022-11-20T11:20:30.617Z,14.90
2022-11-20T11:22:58.246Z,15.97
2022-11-20T11:25:24.509Z,15.20
2022-11-20T11:27:51.914Z,15.67
2022-11-20T11:30:19.274Z,16.33
2022-11-20T11:32:46.174Z,15.70
2022-11-20T11:35:22.648Z,15.93
2022-11-20T11:37:49.813Z,17.03
2022-11-20T11:40:24.005Z,15.90
2022-11-20T11:42:53.798Z,13.55
2022-11-20T11:45:20.261Z,15.93
2022-11-20T11:47:48.764Z,14.57
2022-11-20T11:50:15.871Z,16.80
2022-11-20T11:52:47.727Z,16.67
2022-11-20T11:55:17.924Z,17.77
2022-11-20T11:57:53.500Z,17.27
2022-11-20T12:00:21.302Z,17.40
2022-11-20T12:02:49.292Z,17.43
2022-11-20T12:05:19.889Z,17.27
2022-11-20T12:07:54.680Z,16.60
2022-11-20T12:10:35.736Z,18.42
2022-11-20T12:13:04.847Z,17.17
2022-11-20T12:15:32.256Z,14.33
2022-11-20T12:17:58.643Z,18.17
2022-11-20T12:20:27.659Z,16.00
2022-11-20T12:23:08.712Z,14.27
2022-11-20T12:25:36.657Z,16.83
2022-11-20T12:28:10.266Z,16.20
2022-11-20T12:30:42.980Z,15.80
2022-11-20T12:33:25.499Z,15.37
2022-11-20T12:35:54.974Z,16.87
2022-11-20T12:38:27.478Z,14.43
2022-11-20T12:40:53.749Z,17.50
2022-11-20T12:43:40.474Z,17.43
2022-11-20T12:46:13.439Z,17.63
2022-11-20T12:48:45.004Z,16.90
2022-11-20T12:51:19.565Z,19.27
2022-11-20T12:53:48.979Z,18.17
2022-11-20T12:56:51.284Z,19.53
2022-11-20T12:59:17.825Z,18.23
2022-11-20T13:01:45.038Z,19.43
2022-11-20T13:04:14.189Z,18.80
2022-11-20T13:06:42.581Z,19.23
2022-11-20T13:09:14.059Z,18.57
2022-11-20T13:11:51.359Z,19.90
2022-11-20T13:14:25.112Z,20.83
2022-11-20T13:17:05.731Z,16.67
2022-11-20T13:19:32.848Z,17.43
2022-11-20T13:21:59.165Z,18.30
2022-11-20T13:24:27.662Z,20.20
2022-11-20T13:27:02.959Z,17.83
2022-11-20T13:29:29.390Z,18.13
2022-11-20T13:32:07.727Z,18.07
2022-11-20T13:34:37.003Z,19.97
2022-11-20T13:37:05.194Z,18.47
2022-11-20T13:39:35.591Z,20.10
2022-11-20T13:42:03.590Z,18.37
2022-11-20T13:44:35.374Z,18.17
2022-11-20T13:47:01.637Z,19.00
2022-11-20T13:49:33.414Z,19.23
2022-11-20T13:52:08.676Z,20.90
2022-11-20T13:54:45.598Z,20.53
2022-11-20T13:57:17.859Z,20.00
2022-11-20T14:00:03.858Z,19.83
2022-11-20T14:02:30.843Z,20.07
2022-11-20T14:04:58.806Z,21.07
2022-11-20T14:07:39.268Z,20.47
2022-11-20T14:10:06.102Z,20.87
2022-11-20T14:12:33.363Z,18.63
2022-11-20T14:15:00.216Z,21.43
2022-11-20T14:17:29.501Z,19.97
2022-11-20T14:19:59.032Z,19.30
2022-11-20T14:22:26.287Z,18.33
2022-11-20T14:25:06.351Z,19.27
2022-11-20T14:27:38.058Z,20.17
2022-11-20T14:30:05.201Z,21.83
2022-11-20T14:32:32.042Z,19.73
2022-11-20T14:35:02.553Z,18.20
2022-11-20T14:37:32.364Z,23.60
2022-11-20T14:39:59.824Z,20.70
2022-11-20T14:42:27.370Z,18.87
2022-11-20T14:44:55.949Z,21.27
2022-11-20T14:47:23.320Z,20.57
2022-11-20T14:49:50.570Z,16.53
2022-11-20T14:52:21.241Z,20.83
2022-11-20T14:54:48.583Z,17.87
2022-11-20T14:57:22.526Z,20.17
2022-11-20T14:59:48.782Z,17.60
2022-11-20T15:02:15.108Z,17.77
2022-11-20T15:04:51.329Z,18.63
2022-11-20T15:07:24.921Z,18.33
2022-11-20T15:10:04.619Z,19.43
2022-11-20T15:12:32.103Z,18.53
2022-11-20T15:14:59.801Z,18.90
2022-11-20T15:17:26.065Z,20.10
2022-11-20T15:19:53.218Z,20.13
2022-11-20T15:22:19.913Z,19.50
2022-11-20T15:24:46.240Z,20.00
2022-11-20T15:27:12.990Z,19.53
2022-11-20T15:29:39.237Z,19.47
2022-11-20T15:32:09.196Z,19.40
2022-11-20T15:34:39.393Z,18.77
2022-11-20T15:37:05.709Z,18.30
2022-11-20T15:39:31.966Z,19.97
2022-11-20T15:41:58.268Z,18.70
2022-11-20T15:44:24.917Z,19.90
2022-11-20T15:46:51.562Z,19.83
2022-11-20T15:49:19.791Z,21.43
2022-11-20T15:51:47.918Z,19.37
2022-11-20T15:54:15.282Z,19.90
2022-11-20T15:56:41.527Z,19.67
2022-11-20T15:59:08.166Z,22.00
2022-11-20T16:01:34.477Z,17.67
2022-11-20T16:04:01.166Z,19.27
2022-11-20T16:06:27.486Z,17.83
2022-11-20T16:08:53.743Z,18.17
2022-11-20T16:11:20.031Z,20.77
2022-11-20T16:14:04.885Z,17.30
2022-11-20T16:16:35.228Z,17.75
2022-11-20T16:19:01.507Z,19.30
2022-11-20T16:21:33.823Z,20.53
2022-11-20T16:24:00.895Z,17.67
2022-11-20T16:26:27.698Z,18.10
2022-11-20T16:28:54.647Z,17.20
2022-11-20T16:31:21.340Z,16.43
2022-11-20T16:33:54.623Z,17.97
2022-11-20T16:36:21.688Z,15.87
2022-11-20T16:38:52.477Z,18.33
2022-11-20T16:41:18.740Z,16.23
2022-11-20T16:43:47.466Z,15.00
2022-11-20T16:46:14.601Z,15.60
2022-11-20T16:48:40.961Z,16.57
2022-11-20T16:51:11.010Z,16.50
2022-11-20T16:53:38.159Z,17.73
2022-11-20T16:56:16.030Z,19.23
2022-11-20T16:58:42.359Z,16.83
2022-11-20T17:01:10.769Z,16.97
2022-11-20T17:03:38.055Z,14.97
2022-11-20T17:06:14.639Z,15.57
2022-11-20T17:08:41.236Z,14.87
2022-11-20T17:11:08.380Z,15.93
2022-11-20T17:13:39.695Z,13.83
2022-11-20T17:16:09.167Z,14.50
2022-11-20T17:18:35.470Z,11.80
2022-11-20T17:21:05.247Z,11.83
2022-11-20T17:23:32.070Z,13.30
2022-11-20T17:26:03.297Z,13.93
2022-11-20T17:28:29.763Z,13.27
2022-11-20T17:30:59.414Z,13.47
2022-11-20T17:33:25.645Z,12.37
2022-11-20T17:35:51.915Z,23.63
2022-11-20T17:38:18.179Z,13.93
2022-11-20T17:40:44.430Z,10.47
2022-11-20T17:43:10.673Z,10.70
2022-11-20T17:45:37.001Z,12.07
2022-11-20T17:48:03.362Z,20.37
2022-11-20T17:50:29.645Z,14.57
2022-11-20T17:52:55.917Z,13.03
2022-11-20T17:55:22.184Z,26.83
2022-11-20T17:57:57.075Z,32.00
2022-11-20T18:00:25.046Z,12.82
2022-11-20T18:02:51.329Z,10.40
2022-11-20T18:05:17.650Z,13.00
2022-11-20T18:07:43.970Z,8.70
2022-11-20T18:10:10.350Z,7.93
2022-11-20T18:12:36.629Z,12.47
2022-11-20T18:15:03.034Z,12.57
2022-11-20T18:17:29.375Z,11.83
2022-11-20T18:20:21.836Z,10.50
2022-11-20T18:22:41.886Z,11.03
2022-11-20T18:25:08.409Z,10.53
2022-11-20T18:27:34.666Z,24.87
2022-11-20T18:30:00.948Z,14.77
2022-11-20T18:32:27.283Z,12.57
2022-11-20T18:34:53.580Z,11.87
2022-11-20T18:37:19.910Z,14.10
2022-11-20T18:39:46.256Z,11.73
2022-11-20T18:42:32.831Z,12.93
2022-11-20T18:45:00.215Z,13.00
2022-11-20T18:47:30.811Z,13.77
2022-11-20T18:49:58.432Z,14.47
2022-11-20T18:52:26.424Z,13.17
2022-11-20T18:54:53.256Z,15.77
2022-11-20T18:57:20.434Z,16.80
2022-11-20T18:59:46.802Z,11.73
2022-11-20T19:02:14.432Z,15.53
2022-11-20T19:04:41.026Z,19.73
2022-11-20T19:07:08.177Z,14.37
2022-11-20T19:09:34.494Z,16.40
2022-11-20T19:12:00.836Z,15.20
2022-11-20T19:14:27.214Z,16.83
2022-11-20T19:16:53.605Z,17.83
2022-11-20T19:19:19.913Z,15.43
2022-11-20T19:21:46.372Z,15.63
2022-11-20T19:24:12.737Z,15.20
2022-11-20T19:26:39.159Z,17.17
2022-11-20T19:29:06.129Z,19.70
2022-11-20T19:31:32.721Z,19.33
2022-11-20T19:34:00.665Z,19.03
2022-11-20T19:36:28.156Z,18.00
2022-11-20T19:38:54.752Z,16.73
2022-11-20T19:41:22.495Z,13.93
2022-11-20T19:43:49.863Z,16.13
2022-11-20T19:46:20.964Z,16.17
2022-11-20T19:48:47.406Z,18.17
2022-11-20T19:51:15.228Z,18.20
2022-11-20T19:53:41.566Z,16.50
2022-11-20T19:56:08.488Z,16.60
2022-11-20T19:58:35.681Z,17.50
2022-11-20T20:01:05.697Z,18.03
2022-11-20T20:03:32.108Z,17.70
2022-11-20T20:06:01.180Z,16.97
2022-11-20T20:08:27.494Z,18.80
2022-11-20T20:10:58.188Z,16.50
2022-11-20T20:13:26.807Z,19.37
2022-11-20T20:15:53.366Z,17.20
2022-11-20T20:18:19.670Z,17.30
2022-11-20T20:20:45.934Z,19.43
2022-11-20T20:23:12.299Z,16.50
2022-11-20T20:25:38.613Z,18.47
2022-11-20T20:28:05.501Z,18.30
2022-11-20T20:30:31.784Z,19.67
2022-11-20T20:32:58.083Z,19.83
2022-11-20T20:35:24.660Z,18.47
2022-11-20T20:37:50.904Z,18.87
2022-11-20T20:40:18.938Z,18.73
2022-11-20T20:42:45.247Z,17.47
2022-11-20T20:45:11.641Z,20.03
2022-11-20T20:47:38.667Z,19.67
2022-11-20T20:50:06.641Z,19.20
2022-11-20T20:52:33.165Z,19.03
2022-11-20T20:54:59.604Z,21.17
2022-11-20T20:57:27.647Z,18.60
2022-11-20T20:59:55.409Z,19.00
2022-11-20T21:02:24.645Z,19.53
2022-11-20T21:04:51.459Z,18.03
2022-11-20T21:07:18.177Z,19.80
2022-11-20T21:09:44.539Z,20.93
2022-11-20T21:12:10.852Z,19.90
2022-11-20T21:14:37.158Z,17.30
2022-11-20T21:17:03.502Z,19.30
2022-11-20T21:19:29.761Z,19.30
2022-11-20T21:21:58.989Z,18.83
2022-11-20T21:24:32.321Z,18.77
2022-11-20T21:26:59.123Z,20.43
2022-11-20T21:29:26.073Z,18.17
2022-11-20T21:31:53.206Z,17.50
2022-11-20T21:34:23.384Z,18.90
2022-11-20T21:36:50.334Z,18.63
2022-11-20T21:39:16.837Z,20.20
2022-11-20T21:41:43.249Z,18.87
2022-11-20T21:44:41.146Z,18.93
2022-11-20T21:46:57.589Z,17.47
2022-11-20T21:49:24.013Z,18.20
2022-11-20T21:51:50.394Z,17.27
2022-11-20T21:54:17.575Z,17.53
2022-11-20T21:56:43.824Z,17.50
2022-11-20T21:59:12.061Z,19.23
2022-11-20T22:01:38.584Z,18.87
2022-11-20T22:04:05.262Z,19.13
2022-11-20T22:06:32.826Z,18.60
2022-11-20T22:08:59.465Z,18.50
2022-11-20T22:11:25.810Z,18.03
2022-11-20T22:14:11.072Z,22.63
2022-11-20T22:16:37.888Z,16.08
2022-11-20T22:19:05.033Z,15.77
2022-11-20T22:21:31.400Z,15.20
2022-11-20T22:23:58.364Z,17.37
2022-11-20T22:26:26.288Z,16.40
2022-11-20T22:28:53.688Z,15.73
2022-11-20T22:31:20.704Z,15.90
2022-11-20T22:33:47.023Z,15.43
2022-11-20T22:36:14.705Z,14.30
2022-11-20T22:38:40.999Z,13.07
2022-11-20T22:41:07.246Z,14.70
2022-11-20T22:43:33.515Z,13.27
2022-11-20T22:46:02.877Z,13.47
2022-11-20T22:48:29.131Z,15.57
2022-11-20T22:51:00.143Z,13.83
2022-11-20T22:53:26.535Z,13.43
2022-11-20T22:55:52.801Z,13.37
2022-11-20T22:58:19.067Z,12.77
2022-11-20T23:00:45.639Z,12.60
2022-11-20T23:03:11.940Z,13.60
2022-11-20T23:05:38.243Z,13.83
2022-11-20T23:08:04.605Z,12.80
2022-11-20T23:10:30.990Z,12.57
2022-11-20T23:12:57.245Z,13.73
2022-11-20T23:15:23.501Z,11.20
2022-11-20T23:17:49.773Z,8.53
2022-11-20T23:20:16.080Z,8.73
2022-11-20T23:22:42.332Z,6.67
2022-11-20T23:25:08.885Z,4.97
2022-11-20T23:27:35.144Z,3.77
2022-11-20T23:30:01.437Z,4.13
2022-11-20T23:32:27.761Z,4.13
2022-11-20T23:34:54.023Z,4.63
2022-11-20T23:37:20.278Z,4.97
2022-11-20T23:39:46.560Z,5.53
2022-11-20T23:42:13.879Z,4.77
2022-11-20T23:44:40.292Z,4.57
2022-11-20T23:47:06.552Z,4.87
2022-11-20T23:49:32.807Z,4.87
2022-11-20T23:51:59.061Z,3.67
2022-11-20T23:54:25.738Z,4.50
2022-11-20T23:56:52.185Z,4.83
2022-11-20T23:59:18.483Z,5.07
